sensor_id;sensor_type;location;lat;lon;timestamp;pressure;altitude;pressure_sealevel;temperature;humidity
21658;BME280;10990;48.174;9.782;2023-03-22T00:00:34;95004.84;;;10.39;100.00
21658;BME280;10990;48.174;9.782;2023-03-22T00:03:01;95001.03;;;10.49;100.00
21658;BME280;10990;48.174;9.782;2023-03-22T00:05:28;94997.25;;;10.44;100.00
21658;BME280;10990;48.174;9.782;2023-03-22T00:07:57;94989.63;;;10.32;100.00
21658;BME280;10990;48.174;9.782;2023-03-22T00:10:24;94981.06;;;10.39;100.00
21658;BME280;10990;48.174;9.782;2023-03-22T00:12:52;95000.06;;;10.42;100.00
21658;BME280;10990;48.174;9.782;2023-03-22T00:15:18;94995.94;;;10.40;100.00
21658;BME280;10990;48.174;9.782;2023-03-22T00:17:45;95003.34;;;10.44;100.00
21658;BME280;10990;48.174;9.782;2023-03-22T00:20:12;95007.00;;;10.51;100.00
21658;BME280;10990;48.174;9.782;2023-03-22T00:22:39;95014.75;;;10.61;100.00
21658;BME280;10990;48.174;9.782;2023-03-22T00:25:07;95022.88;;;10.51;100.00
21658;BME280;10990;48.174;9.782;2023-03-22T00:27:34;95017.22;;;10.38;100.00
21658;BME280;10990;48.174;9.782;2023-03-22T00:30:01;95007.81;;;10.27;100.00
21658;BME280;10990;48.174;9.782;2023-03-22T00:32:28;95005.78;;;10.13;100.00
21658;BME280;10990;48.174;9.782;2023-03-22T00:34:54;94989.44;;;10.18;100.00
21658;BME280;10990;48.174;9.782;2023-03-22T00:37:21;94987.63;;;10.18;100.00
21658;BME280;10990;48.174;9.782;2023-03-22T00:39:48;94978.06;;;10.17;100.00
21658;BME280;10990;48.174;9.782;2023-03-22T00:42:16;94974.59;;;10.25;100.00
21658;BME280;10990;48.174;9.782;2023-03-22T00:44:43;94978.44;;;10.30;100.00
21658;BME280;10990;48.174;9.782;2023-03-22T00:47:09;94970.44;;;10.14;100.00
21658;BME280;10990;48.174;9.782;2023-03-22T00:49:36;94959.88;;;10.14;100.00
21658;BME280;10990;48.174;9.782;2023-03-22T00:52:03;94935.28;;;10.05;100.00
21658;BME280;10990;48.174;9.782;2023-03-22T00:54:31;94909.69;;;10.22;100.00
21658;BME280;10990;48.174;9.782;2023-03-22T00:56:58;94912.66;;;10.11;100.00
21658;BME280;10990;48.174;9.782;2023-03-22T00:59:26;94900.59;;;10.00;100.00
21658;BME280;10990;48.174;9.782;2023-03-22T01:01:53;94865.75;;;9.97;100.00
21658;BME280;10990;48.174;9.782;2023-03-22T01:04:21;94850.72;;;9.97;100.00
21658;BME280;10990;48.174;9.782;2023-03-22T01:06:50;94822.66;;;9.88;100.00
21658;BME280;10990;48.174;9.782;2023-03-22T01:09:23;94788.66;;;9.93;100.00
21658;BME280;10990;48.174;9.782;2023-03-22T01:11:52;94759.13;;;9.90;100.00
21658;BME280;10990;48.174;9.782;2023-03-22T01:14:19;94732.72;;;9.73;100.00
21658;BME280;10990;48.174;9.782;2023-03-22T01:16:47;94704.34;;;9.75;100.00
21658;BME280;10990;48.174;9.782;2023-03-22T01:19:14;94674.94;;;9.86;100.00
21658;BME280;10990;48.174;9.782;2023-03-22T01:21:41;94664.06;;;9.81;100.00
21658;BME280;10990;48.174;9.782;2023-03-22T01:24:08;94664.25;;;9.80;100.00
21658;BME280;10990;48.174;9.782;2023-03-22T01:26:35;94649.06;;;9.65;100.00
21658;BME280;10990;48.174;9.782;2023-03-22T01:29:02;94629.44;;;9.60;100.00
21658;BME280;10990;48.174;9.782;2023-03-22T01:31:28;94625.84;;;9.61;100.00
21658;BME280;10990;48.174;9.782;2023-03-22T01:33:57;94617.94;;;9.53;100.00
21658;BME280;10990;48.174;9.782;2023-03-22T01:36:23;94602.41;;;9.58;100.00
21658;BME280;10990;48.174;9.782;2023-03-22T01:38:50;94613.47;;;9.53;100.00
21658;BME280;10990;48.174;9.782;2023-03-22T01:41:19;94615.16;;;9.46;100.00
21658;BME280;10990;48.174;9.782;2023-03-22T01:44:07;94608.41;;;9.43;100.00
21658;BME280;10990;48.174;9.782;2023-03-22T01:46:35;94603.41;;;9.49;100.00
21658;BME280;10990;48.174;9.782;2023-03-22T01:49:05;94618.44;;;9.48;100.00
21658;BME280;10990;48.174;9.782;2023-03-22T01:51:32;94615.50;;;9.27;100.00
21658;BME280;10990;48.174;9.782;2023-03-22T01:54:11;94597.53;;;9.22;100.00
21658;BME280;10990;48.174;9.782;2023-03-22T01:56:40;94574.28;;;9.17;100.00
21658;BME280;10990;48.174;9.782;2023-03-22T01:59:13;94559.31;;;9.10;100.00
21658;BME280;10990;48.174;9.782;2023-03-22T02:02:00;94542.50;;;9.11;100.00
21658;BME280;10990;48.174;9.782;2023-03-22T02:04:33;94532.44;;;9.06;100.00
21658;BME280;10990;48.174;9.782;2023-03-22T02:07:05;94525.53;;;9.05;100.00
21658;BME280;10990;48.174;9.782;2023-03-22T02:09:36;94524.72;;;9.05;100.00
21658;BME280;10990;48.174;9.782;2023-03-22T02:12:14;94524.22;;;9.01;100.00
21658;BME280;10990;48.174;9.782;2023-03-22T02:14:53;94522.41;;;8.93;100.00
21658;BME280;10990;48.174;9.782;2023-03-22T02:17:51;94528.19;;;8.64;100.00
21658;BME280;10990;48.174;9.782;2023-03-22T02:26:50;94463.97;;;8.73;100.00
21658;BME280;10990;48.174;9.782;2023-03-22T02:29:27;94469.25;;;8.65;100.00
21658;BME280;10990;48.174;9.782;2023-03-22T02:32:19;94470.91;;;8.50;100.00
21658;BME280;10990;48.174;9.782;2023-03-22T02:35:13;94462.66;;;8.20;100.00
21658;BME280;10990;48.174;9.782;2023-03-22T02:40:53;94434.97;;;8.16;100.00
21658;BME280;10990;48.174;9.782;2023-03-22T02:43:28;94422.47;;;8.18;100.00
21658;BME280;10990;48.174;9.782;2023-03-22T02:46:06;94414.91;;;8.15;100.00
21658;BME280;10990;48.174;9.782;2023-03-22T02:48:40;94421.19;;;8.14;100.00
21658;BME280;10990;48.174;9.782;2023-03-22T02:51:13;94416.06;;;8.04;100.00
21658;BME280;10990;48.174;9.782;2023-03-22T02:53:45;94415.25;;;8.04;100.00
21658;BME280;10990;48.174;9.782;2023-03-22T02:56:19;94447.97;;;7.93;100.00
21658;BME280;10990;48.174;9.782;2023-03-22T02:58:50;94461.59;;;7.64;100.00
21658;BME280;10990;48.174;9.782;2023-03-22T03:01:21;94462.66;;;7.37;100.00
21658;BME280;10990;48.174;9.782;2023-03-22T03:03:49;94441.78;;;7.35;100.00
21658;BME280;10990;48.174;9.782;2023-03-22T03:06:21;94440.91;;;7.18;100.00
21658;BME280;10990;48.174;9.782;2023-03-22T03:08:50;94423.38;;;7.35;100.00
21658;BME280;10990;48.174;9.782;2023-03-22T03:11:19;94423.69;;;7.24;100.00
21658;BME280;10990;48.174;9.782;2023-03-22T03:13:47;94435.31;;;7.13;100.00
21658;BME280;10990;48.174;9.782;2023-03-22T03:16:15;94432.97;;;7.02;100.00
21658;BME280;10990;48.174;9.782;2023-03-22T03:18:48;94420.59;;;6.94;100.00
21658;BME280;10990;48.174;9.782;2023-03-22T03:21:26;94437.31;;;6.85;100.00
21658;BME280;10990;48.174;9.782;2023-03-22T03:24:13;94437.84;;;6.63;100.00
21658;BME280;10990;48.174;9.782;2023-03-22T03:26:50;94417.16;;;6.60;100.00
21658;BME280;10990;48.174;9.782;2023-03-22T03:29:25;94409.63;;;6.39;100.00
21658;BME280;10990;48.174;9.782;2023-03-22T03:32:01;94402.88;;;6.62;100.00
21658;BME280;10990;48.174;9.782;2023-03-22T03:34:34;94400.84;;;6.48;100.00
21658;BME280;10990;48.174;9.782;2023-03-22T03:37:05;94394.09;;;6.45;100.00
21658;BME280;10990;48.174;9.782;2023-03-22T03:39:36;94381.38;;;6.67;100.00
21658;BME280;10990;48.174;9.782;2023-03-22T03:42:10;94377.31;;;6.72;100.00
21658;BME280;10990;48.174;9.782;2023-03-22T03:44:38;94380.91;;;6.71;100.00
21658;BME280;10990;48.174;9.782;2023-03-22T03:47:07;94384.69;;;6.69;100.00
21658;BME280;10990;48.174;9.782;2023-03-22T03:49:35;94399.50;;;6.44;100.00
21658;BME280;10990;48.174;9.782;2023-03-22T03:52:04;94388.19;;;6.17;100.00
21658;BME280;10990;48.174;9.782;2023-03-22T03:54:31;94377.81;;;6.16;100.00
21658;BME280;10990;48.174;9.782;2023-03-22T03:56:58;94392.31;;;5.84;100.00
21658;BME280;10990;48.174;9.782;2023-03-22T03:59:26;94393.00;;;5.68;100.00
21658;BME280;10990;48.174;9.782;2023-03-22T04:01:55;94400.44;;;5.55;100.00
21658;BME280;10990;48.174;9.782;2023-03-22T04:04:27;94379.06;;;5.68;100.00
21658;BME280;10990;48.174;9.782;2023-03-22T04:06:59;94371.88;;;5.70;100.00
21658;BME280;10990;48.174;9.782;2023-03-22T04:09:30;94365.28;;;5.83;100.00
21658;BME280;10990;48.174;9.782;2023-03-22T04:12:05;94352.47;;;5.80;100.00
21658;BME280;10990;48.174;9.782;2023-03-22T04:14:35;94333.94;;;6.00;100.00
21658;BME280;10990;48.174;9.782;2023-03-22T04:17:09;94321.16;;;6.05;100.00
21658;BME280;10990;48.174;9.782;2023-03-22T04:19:36;94325.22;;;5.99;100.00
21658;BME280;10990;48.174;9.782;2023-03-22T04:22:03;94326.72;;;6.02;100.00
21658;BME280;10990;48.174;9.782;2023-03-22T04:24:32;94327.63;;;6.19;100.00
21658;BME280;10990;48.174;9.782;2023-03-22T04:26:58;94337.31;;;6.18;100.00
21658;BME280;10990;48.174;9.782;2023-03-22T04:29:50;94328.19;;;6.04;100.00
21658;BME280;10990;48.174;9.782;2023-03-22T04:32:38;94338.25;;;5.91;100.00
21658;BME280;10990;48.174;9.782;2023-03-22T04:35:05;94331.00;;;6.03;100.00
21658;BME280;10990;48.174;9.782;2023-03-22T04:37:32;94329.06;;;5.87;100.00
21658;BME280;10990;48.174;9.782;2023-03-22T04:40:15;94323.25;;;5.57;100.00
21658;BME280;10990;48.174;9.782;2023-03-22T04:43:04;94295.19;;;5.76;100.00
21658;BME280;10990;48.174;9.782;2023-03-22T04:45:52;94292.81;;;5.91;100.00
21658;BME280;10990;48.174;9.782;2023-03-22T04:48:25;94299.28;;;5.96;100.00
21658;BME280;10990;48.174;9.782;2023-03-22T04:50:56;94297.66;;;5.95;100.00
21658;BME280;10990;48.174;9.782;2023-03-22T04:53:26;94307.38;;;6.03;100.00
21658;BME280;10990;48.174;9.782;2023-03-22T04:55:57;94317.09;;;6.11;100.00
21658;BME280;10990;48.174;9.782;2023-03-22T04:58:26;94339.84;;;6.02;100.00
21658;BME280;10990;48.174;9.782;2023-03-22T05:00:54;94336.63;;;6.16;100.00
21658;BME280;10990;48.174;9.782;2023-03-22T05:03:21;94349.94;;;6.15;100.00
21658;BME280;10990;48.174;9.782;2023-03-22T05:05:50;94364.28;;;6.02;100.00
21658;BME280;10990;48.174;9.782;2023-03-22T05:08:18;94385.72;;;5.80;100.00
21658;BME280;10990;48.174;9.782;2023-03-22T05:10:48;94402.59;;;5.59;100.00
21658;BME280;10990;48.174;9.782;2023-03-22T05:13:15;94394.91;;;5.58;100.00
21658;BME280;10990;48.174;9.782;2023-03-22T05:15:44;94381.63;;;5.77;100.00
21658;BME280;10990;48.174;9.782;2023-03-22T05:18:15;94376.72;;;5.82;100.00
21658;BME280;10990;48.174;9.782;2023-03-22T05:20:42;94365.34;;;5.74;100.00
21658;BME280;10990;48.174;9.782;2023-03-22T05:23:14;94364.75;;;5.62;100.00
21658;BME280;10990;48.174;9.782;2023-03-22T05:25:46;94371.44;;;5.56;100.00
21658;BME280;10990;48.174;9.782;2023-03-22T05:28:16;94366.06;;;5.58;100.00
21658;BME280;10990;48.174;9.782;2023-03-22T05:30:50;94361.53;;;5.68;100.00
21658;BME280;10990;48.174;9.782;2023-03-22T05:33:39;94355.09;;;5.62;100.00
21658;BME280;10990;48.174;9.782;2023-03-22T05:36:09;94366.72;;;5.78;100.00
21658;BME280;10990;48.174;9.782;2023-03-22T05:38:46;94357.91;;;5.87;100.00
21658;BME280;10990;48.174;9.782;2023-03-22T05:41:13;94377.66;;;5.55;100.00
21658;BME280;10990;48.174;9.782;2023-03-22T05:43:40;94353.91;;;5.57;100.00
21658;BME280;10990;48.174;9.782;2023-03-22T05:46:10;94339.34;;;5.80;100.00
21658;BME280;10990;48.174;9.782;2023-03-22T05:48:50;94334.59;;;6.02;100.00
21658;BME280;10990;48.174;9.782;2023-03-22T05:51:17;94352.34;;;6.08;100.00
21658;BME280;10990;48.174;9.782;2023-03-22T05:53:47;94366.06;;;6.02;100.00
21658;BME280;10990;48.174;9.782;2023-03-22T05:56:18;94368.19;;;6.24;100.00
21658;BME280;10990;48.174;9.782;2023-03-22T05:58:50;94364.88;;;6.14;100.00
21658;BME280;10990;48.174;9.782;2023-03-22T06:01:19;94373.72;;;6.39;100.00
21658;BME280;10990;48.174;9.782;2023-03-22T06:04:12;94360.41;;;6.75;100.00
21658;BME280;10990;48.174;9.782;2023-03-22T06:06:53;94378.44;;;6.70;100.00
21658;BME280;10990;48.174;9.782;2023-03-22T06:09:40;94395.91;;;6.79;100.00
21658;BME280;10990;48.174;9.782;2023-03-22T06:12:11;94372.78;;;6.91;100.00
21658;BME280;10990;48.174;9.782;2023-03-22T06:14:41;94372.88;;;7.32;100.00
21658;BME280;10990;48.174;9.782;2023-03-22T06:17:15;94370.31;;;7.64;100.00
21658;BME280;10990;48.174;9.782;2023-03-22T06:19:44;94379.72;;;7.92;100.00
21658;BME280;10990;48.174;9.782;2023-03-22T06:22:13;94391.22;;;8.07;100.00
21658;BME280;10990;48.174;9.782;2023-03-22T06:24:41;94412.63;;;8.12;100.00
21658;BME280;10990;48.174;9.782;2023-03-22T06:27:12;94393.47;;;8.67;100.00
21658;BME280;10990;48.174;9.782;2023-03-22T06:29:39;94422.75;;;8.72;100.00
21658;BME280;10990;48.174;9.782;2023-03-22T06:32:06;94437.94;;;8.79;100.00
21658;BME280;10990;48.174;9.782;2023-03-22T06:34:34;94451.84;;;9.04;100.00
21658;BME280;10990;48.174;9.782;2023-03-22T06:37:03;94476.97;;;9.31;100.00
21658;BME280;10990;48.174;9.782;2023-03-22T06:39:33;94514.91;;;9.38;100.00
21658;BME280;10990;48.174;9.782;2023-03-22T06:41:59;94541.19;;;9.54;100.00
21658;BME280;10990;48.174;9.782;2023-03-22T06:44:26;94566.53;;;9.80;100.00
21658;BME280;10990;48.174;9.782;2023-03-22T06:47:14;94591.19;;;10.03;100.00
21658;BME280;10990;48.174;9.782;2023-03-22T06:49:52;94621.50;;;10.16;100.00
21658;BME280;10990;48.174;9.782;2023-03-22T06:52:27;94665.25;;;10.58;100.00
21658;BME280;10990;48.174;9.782;2023-03-22T06:54:56;94739.53;;;10.79;100.00
21658;BME280;10990;48.174;9.782;2023-03-22T06:57:23;94775.38;;;11.13;100.00
21658;BME280;10990;48.174;9.782;2023-03-22T06:59:50;94831.69;;;11.30;100.00
21658;BME280;10990;48.174;9.782;2023-03-22T07:02:17;94868.44;;;11.56;100.00
21658;BME280;10990;48.174;9.782;2023-03-22T07:05:04;94914.06;;;11.97;100.00
21658;BME280;10990;48.174;9.782;2023-03-22T07:07:32;94964.44;;;12.20;100.00
21658;BME280;10990;48.174;9.782;2023-03-22T07:09:59;95022.00;;;12.57;100.00
21658;BME280;10990;48.174;9.782;2023-03-22T07:12:26;95084.34;;;12.99;100.00
21658;BME280;10990;48.174;9.782;2023-03-22T07:14:53;95149.13;;;13.13;100.00
21658;BME280;10990;48.174;9.782;2023-03-22T07:17:40;95183.97;;;13.41;100.00
21658;BME280;10990;48.174;9.782;2023-03-22T07:20:08;95234.84;;;13.91;100.00
21658;BME280;10990;48.174;9.782;2023-03-22T07:22:36;95270.63;;;14.03;100.00
21658;BME280;10990;48.174;9.782;2023-03-22T07:25:04;95306.53;;;14.37;100.00
21658;BME280;10990;48.174;9.782;2023-03-22T07:27:32;95346.13;;;14.55;100.00
21658;BME280;10990;48.174;9.782;2023-03-22T07:29:59;95372.44;;;14.88;100.00
21658;BME280;10990;48.174;9.782;2023-03-22T07:32:27;95409.91;;;15.16;100.00
21658;BME280;10990;48.174;9.782;2023-03-22T07:35:02;95440.38;;;15.73;100.00
21658;BME280;10990;48.174;9.782;2023-03-22T07:37:29;95463.91;;;15.84;100.00
21658;BME280;10990;48.174;9.782;2023-03-22T07:39:57;95481.00;;;15.89;100.00
21658;BME280;10990;48.174;9.782;2023-03-22T07:42:28;95492.91;;;16.08;100.00
21658;BME280;10990;48.174;9.782;2023-03-22T07:45:14;95507.47;;;16.27;100.00
21658;BME280;10990;48.174;9.782;2023-03-22T07:47:41;95513.63;;;16.43;100.00
21658;BME280;10990;48.174;9.782;2023-03-22T07:50:31;95523.09;;;16.45;100.00
21658;BME280;10990;48.174;9.782;2023-03-22T07:53:01;95532.63;;;16.54;100.00
21658;BME280;10990;48.174;9.782;2023-03-22T07:55:29;95551.81;;;17.01;100.00
21658;BME280;10990;48.174;9.782;2023-03-22T07:57:56;95551.03;;;17.63;100.00
21658;BME280;10990;48.174;9.782;2023-03-22T08:00:23;95563.63;;;17.69;100.00
21658;BME280;10990;48.174;9.782;2023-03-22T08:03:13;95563.72;;;18.24;100.00
21658;BME280;10990;48.174;9.782;2023-03-22T08:05:55;95565.00;;;18.35;100.00
21658;BME280;10990;48.174;9.782;2023-03-22T08:08:23;95571.06;;;18.64;100.00
21658;BME280;10990;48.174;9.782;2023-03-22T08:10:52;95570.13;;;18.78;100.00
21658;BME280;10990;48.174;9.782;2023-03-22T08:13:19;95572.94;;;18.63;100.00
21658;BME280;10990;48.174;9.782;2023-03-22T08:15:45;95575.47;;;18.78;100.00
21658;BME280;10990;48.174;9.782;2023-03-22T08:18:13;95582.41;;;18.59;100.00
21658;BME280;10990;48.174;9.782;2023-03-22T08:20:40;95576.16;;;19.07;100.00
21658;BME280;10990;48.174;9.782;2023-03-22T08:23:14;95572.47;;;19.41;100.00
21658;BME280;10990;48.174;9.782;2023-03-22T08:25:55;95568.72;;;19.62;100.00
21658;BME280;10990;48.174;9.782;2023-03-22T08:28:22;95571.44;;;19.68;100.00
21658;BME280;10990;48.174;9.782;2023-03-22T08:30:51;95565.28;;;20.33;100.00
21658;BME280;10990;48.174;9.782;2023-03-22T08:33:19;95563.94;;;20.62;100.00
21658;BME280;10990;48.174;9.782;2023-03-22T08:35:49;95560.72;;;20.40;100.00
21658;BME280;10990;48.174;9.782;2023-03-22T08:38:16;95559.00;;;20.59;100.00
21658;BME280;10990;48.174;9.782;2023-03-22T08:40:47;95557.09;;;20.66;100.00
21658;BME280;10990;48.174;9.782;2023-03-22T08:43:21;95556.44;;;21.09;100.00
21658;BME280;10990;48.174;9.782;2023-03-22T08:45:49;95559.88;;;21.16;99.53
21658;BME280;10990;48.174;9.782;2023-03-22T08:48:18;95560.75;;;21.42;98.78
21658;BME280;10990;48.174;9.782;2023-03-22T08:51:04;95563.66;;;21.09;98.34
21658;BME280;10990;48.174;9.782;2023-03-22T08:53:44;95568.00;;;21.41;97.58
21658;BME280;10990;48.174;9.782;2023-03-22T08:56:30;95559.78;;;21.80;95.18
21658;BME280;10990;48.174;9.782;2023-03-22T08:59:16;95559.69;;;21.18;95.83
21658;BME280;10990;48.174;9.782;2023-03-22T09:02:18;95555.44;;;21.79;93.44
21658;BME280;10990;48.174;9.782;2023-03-22T09:04:46;95564.81;;;21.19;97.06
21658;BME280;10990;48.174;9.782;2023-03-22T09:07:13;95559.75;;;21.61;94.63
21658;BME280;10990;48.174;9.782;2023-03-22T09:09:44;95557.16;;;21.48;93.57
21658;BME280;10990;48.174;9.782;2023-03-22T09:12:11;95561.22;;;20.69;99.82
21658;BME280;10990;48.174;9.782;2023-03-22T09:14:39;95561.22;;;22.01;98.61
21658;BME280;10990;48.174;9.782;2023-03-22T09:17:06;95563.56;;;21.97;94.87
21658;BME280;10990;48.174;9.782;2023-03-22T09:19:33;95575.00;;;21.67;97.86
21658;BME280;10990;48.174;9.782;2023-03-22T09:22:00;95562.50;;;21.98;100.00
21658;BME280;10990;48.174;9.782;2023-03-22T09:24:36;95574.81;;;21.87;99.69
21658;BME280;10990;48.174;9.782;2023-03-22T09:27:03;95575.66;;;21.06;99.32
21658;BME280;10990;48.174;9.782;2023-03-22T09:29:30;95563.78;;;21.52;100.00
21658;BME280;10990;48.174;9.782;2023-03-22T09:32:01;95559.59;;;21.56;98.05
21658;BME280;10990;48.174;9.782;2023-03-22T09:34:31;95550.53;;;21.94;99.72
21658;BME280;10990;48.174;9.782;2023-03-22T09:36:59;95548.22;;;22.16;97.74
21658;BME280;10990;48.174;9.782;2023-03-22T09:39:30;95544.94;;;22.81;95.17
21658;BME280;10990;48.174;9.782;2023-03-22T09:42:02;95538.31;;;22.10;94.40
21658;BME280;10990;48.174;9.782;2023-03-22T09:44:32;95538.41;;;22.58;96.81
21658;BME280;10990;48.174;9.782;2023-03-22T09:47:04;95542.63;;;22.18;95.54
21658;BME280;10990;48.174;9.782;2023-03-22T09:49:35;95543.09;;;22.63;97.45
21658;BME280;10990;48.174;9.782;2023-03-22T09:52:10;95545.28;;;21.37;95.99
21658;BME280;10990;48.174;9.782;2023-03-22T09:54:39;95539.22;;;21.42;97.10
21658;BME280;10990;48.174;9.782;2023-03-22T09:57:10;95533.19;;;22.27;93.33
21658;BME280;10990;48.174;9.782;2023-03-22T09:59:45;95527.56;;;22.77;90.54
21658;BME280;10990;48.174;9.782;2023-03-22T10:02:31;95518.59;;;22.95;89.32
21658;BME280;10990;48.174;9.782;2023-03-22T10:05:09;95510.03;;;22.56;84.35
21658;BME280;10990;48.174;9.782;2023-03-22T10:07:48;95514.25;;;22.94;86.35
21658;BME280;10990;48.174;9.782;2023-03-22T10:10:20;95499.47;;;22.85;86.20
21658;BME280;10990;48.174;9.782;2023-03-22T10:12:52;95496.97;;;23.25;87.24
21658;BME280;10990;48.174;9.782;2023-03-22T10:15:28;95502.50;;;23.54;84.02
21658;BME280;10990;48.174;9.782;2023-03-22T10:17:59;95480.75;;;24.07;83.17
21658;BME280;10990;48.174;9.782;2023-03-22T10:20:35;95489.53;;;23.74;80.42
21658;BME280;10990;48.174;9.782;2023-03-22T10:23:05;95490.66;;;23.55;83.73
21658;BME280;10990;48.174;9.782;2023-03-22T10:25:36;95480.34;;;23.63;81.10
21658;BME280;10990;48.174;9.782;2023-03-22T10:28:14;95485.94;;;24.09;76.18
21658;BME280;10990;48.174;9.782;2023-03-22T10:30:42;95484.00;;;23.45;74.31
21658;BME280;10990;48.174;9.782;2023-03-22T10:33:22;95475.50;;;23.89;74.73
21658;BME280;10990;48.174;9.782;2023-03-22T10:35:51;95486.41;;;23.12;75.66
21658;BME280;10990;48.174;9.782;2023-03-22T10:38:20;95479.81;;;22.96;74.19
21658;BME280;10990;48.174;9.782;2023-03-22T10:40:50;95473.41;;;23.44;76.69
21658;BME280;10990;48.174;9.782;2023-03-22T10:43:21;95465.88;;;23.93;72.21
21658;BME280;10990;48.174;9.782;2023-03-22T10:45:50;95467.13;;;24.14;73.04
21658;BME280;10990;48.174;9.782;2023-03-22T10:48:25;95458.88;;;24.21;72.01
21658;BME280;10990;48.174;9.782;2023-03-22T10:50:54;95460.72;;;23.91;71.67
21658;BME280;10990;48.174;9.782;2023-03-22T10:53:27;95470.34;;;23.64;73.22
21658;BME280;10990;48.174;9.782;2023-03-22T10:55:55;95466.00;;;23.39;75.52
21658;BME280;10990;48.174;9.782;2023-03-22T10:58:27;95460.81;;;23.14;77.11
21658;BME280;10990;48.174;9.782;2023-03-22T11:00:55;95464.72;;;22.76;74.22
21658;BME280;10990;48.174;9.782;2023-03-22T11:03:28;95475.03;;;22.01;79.88
21658;BME280;10990;48.174;9.782;2023-03-22T11:06:01;95472.63;;;21.37;80.33
21658;BME280;10990;48.174;9.782;2023-03-22T11:08:28;95464.84;;;21.22;83.06
21658;BME280;10990;48.174;9.782;2023-03-22T11:10:54;95455.44;;;21.57;91.39
21658;BME280;10990;48.174;9.782;2023-03-22T11:13:24;95462.88;;;21.11;91.39
21658;BME280;10990;48.174;9.782;2023-03-22T11:15:56;95461.50;;;20.77;94.29
21658;BME280;10990;48.174;9.782;2023-03-22T11:18:30;95449.06;;;20.82;92.75
21658;BME280;10990;48.174;9.782;2023-03-22T11:20:59;95455.09;;;20.08;91.27
21658;BME280;10990;48.174;9.782;2023-03-22T11:23:27;95453.84;;;20.04;96.79
21658;BME280;10990;48.174;9.782;2023-03-22T11:26:03;95451.06;;;19.79;95.79
21658;BME280;10990;48.174;9.782;2023-03-22T11:28:34;95447.66;;;20.03;94.42
21658;BME280;10990;48.174;9.782;2023-03-22T11:31:05;95447.81;;;20.15;97.54
21658;BME280;10990;48.174;9.782;2023-03-22T11:33:34;95441.81;;;20.20;99.45
21658;BME280;10990;48.174;9.782;2023-03-22T11:36:03;95442.09;;;20.05;100.00
21658;BME280;10990;48.174;9.782;2023-03-22T11:38:36;95441.38;;;20.61;100.00
21658;BME280;10990;48.174;9.782;2023-03-22T11:41:06;95435.44;;;20.07;98.81
21658;BME280;10990;48.174;9.782;2023-03-22T11:43:35;95440.06;;;19.93;100.00
21658;BME280;10990;48.174;9.782;2023-03-22T11:46:03;95436.41;;;19.81;99.77
21658;BME280;10990;48.174;9.782;2023-03-22T11:48:31;95427.91;;;19.91;96.94
21658;BME280;10990;48.174;9.782;2023-03-22T11:51:06;95427.47;;;19.87;94.03
21658;BME280;10990;48.174;9.782;2023-03-22T11:53:36;95418.22;;;19.83;93.26
21658;BME280;10990;48.174;9.782;2023-03-22T11:56:05;95423.69;;;19.50;93.49
21658;BME280;10990;48.174;9.782;2023-03-22T11:58:57;95421.19;;;19.55;92.45
21658;BME280;10990;48.174;9.782;2023-03-22T12:01:34;95428.69;;;19.26;95.64
21658;BME280;10990;48.174;9.782;2023-03-22T12:04:06;95420.22;;;19.23;92.82
21658;BME280;10990;48.174;9.782;2023-03-22T12:06:39;95425.34;;;19.44;96.75
21658;BME280;10990;48.174;9.782;2023-03-22T12:09:11;95409.75;;;19.86;95.09
21658;BME280;10990;48.174;9.782;2023-03-22T12:11:46;95413.28;;;19.80;91.59
21658;BME280;10990;48.174;9.782;2023-03-22T12:14:20;95417.84;;;19.80;97.79
21658;BME280;10990;48.174;9.782;2023-03-22T12:16:49;95415.19;;;19.60;94.33
21658;BME280;10990;48.174;9.782;2023-03-22T12:19:25;95406.66;;;19.83;94.38
21658;BME280;10990;48.174;9.782;2023-03-22T12:21:58;95413.34;;;19.67;96.64
21658;BME280;10990;48.174;9.782;2023-03-22T12:24:28;95397.38;;;19.79;94.22
21658;BME280;10990;48.174;9.782;2023-03-22T12:26:59;95391.75;;;19.93;93.84
21658;BME280;10990;48.174;9.782;2023-03-22T12:29:30;95389.56;;;19.70;91.38
21658;BME280;10990;48.174;9.782;2023-03-22T12:31:59;95382.53;;;19.76;93.85
21658;BME280;10990;48.174;9.782;2023-03-22T12:34:36;95387.06;;;19.76;93.08
21658;BME280;10990;48.174;9.782;2023-03-22T12:37:06;95380.84;;;19.82;92.11
21658;BME280;10990;48.174;9.782;2023-03-22T12:39:39;95374.56;;;19.49;93.18
21658;BME280;10990;48.174;9.782;2023-03-22T12:42:14;95379.16;;;19.36;95.50
21658;BME280;10990;48.174;9.782;2023-03-22T12:44:46;95378.97;;;19.31;100.00
21658;BME280;10990;48.174;9.782;2023-03-22T12:47:19;95376.09;;;19.32;100.00
21658;BME280;10990;48.174;9.782;2023-03-22T12:49:53;95367.72;;;19.60;96.05
21658;BME280;10990;48.174;9.782;2023-03-22T12:52:25;95364.59;;;19.77;97.33
21658;BME280;10990;48.174;9.782;2023-03-22T12:54:57;95365.00;;;19.74;95.52
21658;BME280;10990;48.174;9.782;2023-03-22T12:57:26;95364.94;;;19.87;92.42
21658;BME280;10990;48.174;9.782;2023-03-22T12:59:55;95365.03;;;19.67;90.91
21658;BME280;10990;48.174;9.782;2023-03-22T13:02:25;95370.19;;;20.07;89.02
21658;BME280;10990;48.174;9.782;2023-03-22T13:04:55;95361.38;;;20.31;88.25
21658;BME280;10990;48.174;9.782;2023-03-22T13:07:51;95366.63;;;20.13;90.66
21658;BME280;10990;48.174;9.782;2023-03-22T13:10:39;95351.66;;;20.30;95.02
21658;BME280;10990;48.174;9.782;2023-03-22T13:13:43;95351.31;;;20.20;97.57
21658;BME280;10990;48.174;9.782;2023-03-22T13:16:15;95354.84;;;19.24;94.00
21658;BME280;10990;48.174;9.782;2023-03-22T13:19:01;95359.00;;;19.13;96.12
21658;BME280;10990;48.174;9.782;2023-03-22T13:21:30;95355.88;;;19.30;95.50
21658;BME280;10990;48.174;9.782;2023-03-22T13:24:19;95357.28;;;19.39;97.77
21658;BME280;10990;48.174;9.782;2023-03-22T13:26:48;95350.81;;;19.66;96.43
21658;BME280;10990;48.174;9.782;2023-03-22T13:29:19;95347.63;;;19.76;95.73
21658;BME280;10990;48.174;9.782;2023-03-22T13:31:56;95350.38;;;19.69;98.43